sensor_id;sensor_type;location;lat;lon;timestamp;pressure;altitude;pressure_sealevel;temperature;humidity
72086;BME280;64750;52.134;5.424;2022-12-07T00:01:51;102002.56;;;7.34;77.38
72086;BME280;64750;52.134;5.424;2022-12-07T00:04:12;102006.13;;;7.31;77.55
72086;BME280;64750;52.134;5.424;2022-12-07T00:06:42;102005.28;;;7.31;77.63
72086;BME280;64750;52.134;5.424;2022-12-07T00:09:16;102001.78;;;7.30;77.45
72086;BME280;64750;52.134;5.424;2022-12-07T00:11:43;102003.63;;;7.27;77.56
72086;BME280;64750;52.134;5.424;2022-12-07T00:14:12;102016.69;;;7.27;77.69
72086;BME280;64750;52.134;5.424;2022-12-07T00:16:39;102003.63;;;7.27;77.60
72086;BME280;64750;52.134;5.424;2022-12-07T00:19:06;102002.81;;;7.25;77.37
72086;BME280;64750;52.134;5.424;2022-12-07T00:21:35;102007.22;;;7.22;77.75
72086;BME280;64750;52.134;5.424;2022-12-07T00:24:03;101996.81;;;7.21;77.78
72086;BME280;64750;52.134;5.424;2022-12-07T00:26:33;101991.59;;;7.21;77.85
72086;BME280;64750;52.134;5.424;2022-12-07T00:29:03;101994.25;;;7.19;77.66
72086;BME280;64750;52.134;5.424;2022-12-07T00:31:33;101996.88;;;7.19;77.36
72086;BME280;64750;52.134;5.424;2022-12-07T00:34:01;101984.69;;;7.18;77.48
72086;BME280;64750;52.134;5.424;2022-12-07T00:36:28;101983.84;;;7.16;77.35
72086;BME280;64750;52.134;5.424;2022-12-07T00:38:55;101982.13;;;7.17;77.70
72086;BME280;64750;52.134;5.424;2022-12-07T00:41:24;101987.41;;;7.14;77.60
72086;BME280;64750;52.134;5.424;2022-12-07T00:43:51;101984.78;;;7.14;77.55
72086;BME280;64750;52.134;5.424;2022-12-07T00:46:19;101980.50;;;7.11;77.63
72086;BME280;64750;52.134;5.424;2022-12-07T00:48:46;101975.28;;;7.11;77.42
72086;BME280;64750;52.134;5.424;2022-12-07T00:51:18;101979.81;;;7.04;77.53
72086;BME280;64750;52.134;5.424;2022-12-07T00:53:45;101975.47;;;7.05;77.43
72086;BME280;64750;52.134;5.424;2022-12-07T00:56:14;101977.25;;;7.03;77.59
72086;BME280;64750;52.134;5.424;2022-12-07T00:58:40;101976.38;;;7.04;77.49
72086;BME280;64750;52.134;5.424;2022-12-07T01:01:08;101972.03;;;7.03;77.83
72086;BME280;64750;52.134;5.424;2022-12-07T01:03:36;101972.03;;;7.03;77.51
72086;BME280;64750;52.134;5.424;2022-12-07T01:06:03;101971.19;;;7.01;77.42
72086;BME280;64750;52.134;5.424;2022-12-07T01:08:30;101974.69;;;7.01;77.34
72086;BME280;64750;52.134;5.424;2022-12-07T01:10:58;101970.34;;;7.00;77.62
72086;BME280;64750;52.134;5.424;2022-12-07T01:13:25;101977.41;;;6.97;77.57
72086;BME280;64750;52.134;5.424;2022-12-07T01:15:56;101976.69;;;6.92;77.55
72086;BME280;64750;52.134;5.424;2022-12-07T01:18:23;101974.06;;;6.92;77.51
72086;BME280;64750;52.134;5.424;2022-12-07T01:21:20;101976.69;;;6.92;77.53
72086;BME280;64750;52.134;5.424;2022-12-07T01:23:47;101976.72;;;6.90;77.61
72086;BME280;64750;52.134;5.424;2022-12-07T01:26:17;101977.72;;;6.84;77.59
72086;BME280;64750;52.134;5.424;2022-12-07T01:28:44;101971.75;;;6.81;77.88
72086;BME280;64750;52.134;5.424;2022-12-07T01:31:14;101980.44;;;6.81;77.54
72086;BME280;64750;52.134;5.424;2022-12-07T01:33:46;101981.28;;;6.82;77.61
72086;BME280;64750;52.134;5.424;2022-12-07T01:36:16;101974.38;;;6.79;77.68
72086;BME280;64750;52.134;5.424;2022-12-07T01:38:44;101984.84;;;6.79;77.80
72086;BME280;64750;52.134;5.424;2022-12-07T01:41:12;101981.41;;;6.77;77.91
72086;BME280;64750;52.134;5.424;2022-12-07T01:44:18;101980.53;;;6.78;77.82
72086;BME280;64750;52.134;5.424;2022-12-07T01:46:59;101976.19;;;6.77;77.77
72086;BME280;64750;52.134;5.424;2022-12-07T01:54:54;101979.69;;;6.76;77.82
72086;BME280;64750;52.134;5.424;2022-12-07T01:57:22;101976.25;;;6.76;77.81
72086;BME280;64750;52.134;5.424;2022-12-07T01:59:51;101971.91;;;6.75;77.66
72086;BME280;64750;52.134;5.424;2022-12-07T02:02:22;101979.78;;;6.73;77.76
72086;BME280;64750;52.134;5.424;2022-12-07T02:04:52;101979.84;;;6.70;77.69
72086;BME280;64750;52.134;5.424;2022-12-07T02:07:20;101981.66;;;6.68;77.69
72086;BME280;64750;52.134;5.424;2022-12-07T02:09:48;101982.59;;;6.65;77.82
72086;BME280;64750;52.134;5.424;2022-12-07T02:12:14;101984.53;;;6.57;77.42
72086;BME280;64750;52.134;5.424;2022-12-07T02:14:41;101974.19;;;6.54;77.83
72086;BME280;64750;52.134;5.424;2022-12-07T02:28:33;101969.19;;;6.43;77.88
72086;BME280;64750;52.134;5.424;2022-12-07T02:31:14;101970.09;;;6.42;77.97
72086;BME280;64750;52.134;5.424;2022-12-07T02:33:49;101980.53;;;6.44;78.00
72086;BME280;64750;52.134;5.424;2022-12-07T02:36:30;101970.91;;;6.44;77.85
72086;BME280;64750;52.134;5.424;2022-12-07T02:39:08;101962.25;;;6.44;77.98
72086;BME280;64750;52.134;5.424;2022-12-07T02:41:41;101957.00;;;6.44;77.90
72086;BME280;64750;52.134;5.424;2022-12-07T02:44:13;101964.88;;;6.42;78.22
72086;BME280;64750;52.134;5.424;2022-12-07T02:46:43;101961.38;;;6.43;78.12
72086;BME280;64750;52.134;5.424;2022-12-07T02:49:36;101960.47;;;6.44;78.01
72086;BME280;64750;52.134;5.424;2022-12-07T02:52:04;101959.59;;;6.45;78.15
72086;BME280;64750;52.134;5.424;2022-12-07T02:54:30;101963.09;;;6.44;78.02
72086;BME280;64750;52.134;5.424;2022-12-07T03:02:12;101965.78;;;6.41;78.12
72086;BME280;64750;52.134;5.424;2022-12-07T03:15:39;101958.25;;;6.29;78.34
72086;BME280;64750;52.134;5.424;2022-12-07T03:18:09;101961.69;;;6.29;78.29
72086;BME280;64750;52.134;5.424;2022-12-07T03:20:39;101961.75;;;6.28;78.08
72086;BME280;64750;52.134;5.424;2022-12-07T03:23:08;101962.63;;;6.28;78.54
72086;BME280;64750;52.134;5.424;2022-12-07T03:25:42;101955.72;;;6.24;78.13
72086;BME280;64750;52.134;5.424;2022-12-07T03:28:13;101951.44;;;6.21;78.17
72086;BME280;64750;52.134;5.424;2022-12-07T03:30:46;101961.00;;;6.22;78.34
72086;BME280;64750;52.134;5.424;2022-12-07T03:33:29;101956.59;;;6.24;78.24
72086;BME280;64750;52.134;5.424;2022-12-07T03:36:03;101954.78;;;6.27;78.40
72086;BME280;64750;52.134;5.424;2022-12-07T03:38:41;101956.53;;;6.28;78.53
72086;BME280;64750;52.134;5.424;2022-12-07T03:41:12;101952.19;;;6.27;78.56
72086;BME280;64750;52.134;5.424;2022-12-07T03:43:41;101953.88;;;6.29;78.42
72086;BME280;64750;52.134;5.424;2022-12-07T03:52:02;101944.22;;;6.33;78.48
72086;BME280;64750;52.134;5.424;2022-12-07T03:54:47;101944.22;;;6.33;78.44
72086;BME280;64750;52.134;5.424;2022-12-07T03:57:16;101949.44;;;6.33;78.31
72086;BME280;64750;52.134;5.424;2022-12-07T03:59:46;101954.69;;;6.31;78.44
72086;BME280;64750;52.134;5.424;2022-12-07T04:02:13;101951.28;;;6.28;78.26
72086;BME280;64750;52.134;5.424;2022-12-07T04:04:41;101944.28;;;6.30;78.59
72086;BME280;64750;52.134;5.424;2022-12-07T04:07:09;101950.38;;;6.30;78.29
72086;BME280;64750;52.134;5.424;2022-12-07T04:09:35;101935.56;;;6.31;78.45
72086;BME280;64750;52.134;5.424;2022-12-07T04:12:02;101936.47;;;6.30;78.33
72086;BME280;64750;52.134;5.424;2022-12-07T04:14:28;101936.47;;;6.30;78.45
72086;BME280;64750;52.134;5.424;2022-12-07T04:16:57;101932.97;;;6.31;78.19
72086;BME280;64750;52.134;5.424;2022-12-07T04:19:25;101931.25;;;6.30;78.11
72086;BME280;64750;52.134;5.424;2022-12-07T04:21:52;101927.81;;;6.28;78.53
72086;BME280;64750;52.134;5.424;2022-12-07T04:24:19;101933.91;;;6.27;78.31
72086;BME280;64750;52.134;5.424;2022-12-07T04:26:46;101930.50;;;6.24;78.24
72086;BME280;64750;52.134;5.424;2022-12-07T04:29:14;101935.72;;;6.24;78.40
72086;BME280;64750;52.134;5.424;2022-12-07T04:31:41;101933.91;;;6.27;78.56
72086;BME280;64750;52.134;5.424;2022-12-07T04:34:08;101938.28;;;6.26;78.43
72086;BME280;64750;52.134;5.424;2022-12-07T04:36:35;101937.44;;;6.24;78.42
72086;BME280;64750;52.134;5.424;2022-12-07T04:39:02;101939.22;;;6.23;78.45
72086;BME280;64750;52.134;5.424;2022-12-07T04:41:29;101929.59;;;6.26;78.30
72086;BME280;64750;52.134;5.424;2022-12-07T04:43:57;101931.31;;;6.27;78.45
72086;BME280;64750;52.134;5.424;2022-12-07T04:46:26;101932.28;;;6.22;78.07
72086;BME280;64750;52.134;5.424;2022-12-07T04:48:53;101940.28;;;6.15;78.40
72086;BME280;64750;52.134;5.424;2022-12-07T04:51:23;101936.84;;;6.14;78.63
72086;BME280;64750;52.134;5.424;2022-12-07T04:53:52;101929.03;;;6.13;78.17
72086;BME280;64750;52.134;5.424;2022-12-07T04:56:19;101934.38;;;6.08;77.88
72086;BME280;64750;52.134;5.424;2022-12-07T04:58:47;101929.25;;;6.03;78.22
72086;BME280;64750;52.134;5.424;2022-12-07T05:01:15;101923.97;;;6.05;78.39
72086;BME280;64750;52.134;5.424;2022-12-07T05:03:42;101921.38;;;6.06;78.54
72086;BME280;64750;52.134;5.424;2022-12-07T05:06:10;101918.72;;;6.08;78.47
72086;BME280;64750;52.134;5.424;2022-12-07T05:08:39;101920.44;;;6.07;78.36
72086;BME280;64750;52.134;5.424;2022-12-07T05:11:06;101922.13;;;6.10;78.57
72086;BME280;64750;52.134;5.424;2022-12-07T05:13:34;101912.50;;;6.12;78.30
72086;BME280;64750;52.134;5.424;2022-12-07T05:16:00;101911.63;;;6.13;78.42
72086;BME280;64750;52.134;5.424;2022-12-07T05:18:27;101918.56;;;6.14;78.42
72086;BME280;64750;52.134;5.424;2022-12-07T05:20:53;101920.34;;;6.12;78.57
72086;BME280;64750;52.134;5.424;2022-12-07T05:23:20;101908.13;;;6.14;78.45
72086;BME280;64750;52.134;5.424;2022-12-07T05:25:47;101913.31;;;6.16;78.46
72086;BME280;64750;52.134;5.424;2022-12-07T05:28:13;101913.34;;;6.14;78.37
72086;BME280;64750;52.134;5.424;2022-12-07T05:30:39;101911.69;;;6.10;78.47
72086;BME280;64750;52.134;5.424;2022-12-07T05:33:08;101910.84;;;6.10;78.51
72086;BME280;64750;52.134;5.424;2022-12-07T05:35:35;101916.91;;;6.10;78.61
72086;BME280;64750;52.134;5.424;2022-12-07T05:38:04;101908.13;;;6.13;78.48
72086;BME280;64750;52.134;5.424;2022-12-07T05:40:30;101908.13;;;6.14;78.38
72086;BME280;64750;52.134;5.424;2022-12-07T05:42:56;101916.81;;;6.15;78.55
72086;BME280;64750;52.134;5.424;2022-12-07T05:45:29;101911.53;;;6.16;78.77
72086;BME280;64750;52.134;5.424;2022-12-07T05:47:58;101925.47;;;6.17;78.65
72086;BME280;64750;52.134;5.424;2022-12-07T05:50:24;101918.53;;;6.16;78.44
72086;BME280;64750;52.134;5.424;2022-12-07T05:52:51;101922.91;;;6.14;78.26
72086;BME280;64750;52.134;5.424;2022-12-07T05:55:17;101917.69;;;6.14;78.31
72086;BME280;64750;52.134;5.424;2022-12-07T05:57:46;101921.09;;;6.17;78.62
72086;BME280;64750;52.134;5.424;2022-12-07T06:00:33;101918.44;;;6.19;78.50
72086;BME280;64750;52.134;5.424;2022-12-07T06:03:00;101917.50;;;6.23;78.63
72086;BME280;64750;52.134;5.424;2022-12-07T06:05:26;101923.47;;;6.27;78.61
72086;BME280;64750;52.134;5.424;2022-12-07T06:07:53;101919.06;;;6.29;78.82
72086;BME280;64750;52.134;5.424;2022-12-07T06:10:19;101919.03;;;6.30;78.58
72086;BME280;64750;52.134;5.424;2022-12-07T06:12:46;101921.59;;;6.32;78.44
72086;BME280;64750;52.134;5.424;2022-12-07T06:15:12;101924.19;;;6.33;78.52
72086;BME280;64750;52.134;5.424;2022-12-07T06:17:39;101923.25;;;6.36;78.68
72086;BME280;64750;52.134;5.424;2022-12-07T06:20:09;101922.38;;;6.35;78.43
72086;BME280;64750;52.134;5.424;2022-12-07T06:22:35;101926.72;;;6.36;78.71
72086;BME280;64750;52.134;5.424;2022-12-07T06:25:02;101923.22;;;6.37;78.52
72086;BME280;64750;52.134;5.424;2022-12-07T06:27:34;101928.47;;;6.36;78.59
72086;BME280;64750;52.134;5.424;2022-12-07T06:30:04;101915.38;;;6.37;78.60
72086;BME280;64750;52.134;5.424;2022-12-07T06:32:33;101927.56;;;6.38;78.40
72086;BME280;64750;52.134;5.424;2022-12-07T06:35:00;101930.13;;;6.40;78.60
72086;BME280;64750;52.134;5.424;2022-12-07T06:37:27;101922.19;;;6.43;78.41
72086;BME280;64750;52.134;5.424;2022-12-07T06:39:53;101925.63;;;6.45;78.46
72086;BME280;64750;52.134;5.424;2022-12-07T06:42:20;101923.88;;;6.46;78.45
72086;BME280;64750;52.134;5.424;2022-12-07T06:44:46;101928.25;;;6.45;78.37
72086;BME280;64750;52.134;5.424;2022-12-07T06:47:13;101927.31;;;6.48;78.47
72086;BME280;64750;52.134;5.424;2022-12-07T06:50:02;101921.16;;;6.50;78.65
72086;BME280;64750;52.134;5.424;2022-12-07T06:52:32;101924.59;;;6.51;78.40
72086;BME280;64750;52.134;5.424;2022-12-07T06:54:59;101927.16;;;6.52;78.35
72086;BME280;64750;52.134;5.424;2022-12-07T06:57:26;101928.06;;;6.53;78.47
72086;BME280;64750;52.134;5.424;2022-12-07T06:59:52;101925.38;;;6.54;78.49
72086;BME280;64750;52.134;5.424;2022-12-07T07:02:19;101924.50;;;6.55;78.38
72086;BME280;64750;52.134;5.424;2022-12-07T07:04:45;101921.84;;;6.57;78.50
72086;BME280;64750;52.134;5.424;2022-12-07T07:07:12;101926.13;;;6.60;78.51
72086;BME280;64750;52.134;5.424;2022-12-07T07:09:38;101925.25;;;6.61;78.47
72086;BME280;64750;52.134;5.424;2022-12-07T07:12:05;101922.63;;;6.61;78.06
72086;BME280;64750;52.134;5.424;2022-12-07T07:14:33;101922.63;;;6.61;78.42
72086;BME280;64750;52.134;5.424;2022-12-07T07:16:59;101918.25;;;6.61;78.22
72086;BME280;64750;52.134;5.424;2022-12-07T07:19:26;101925.25;;;6.61;77.86
72086;BME280;64750;52.134;5.424;2022-12-07T07:21:52;101928.75;;;6.60;77.94
72086;BME280;64750;52.134;5.424;2022-12-07T07:24:19;101928.75;;;6.60;77.75
72086;BME280;64750;52.134;5.424;2022-12-07T07:26:45;101931.34;;;6.60;77.69
72086;BME280;64750;52.134;5.424;2022-12-07T07:29:12;101929.47;;;6.65;77.88
72086;BME280;64750;52.134;5.424;2022-12-07T07:31:38;101929.56;;;6.62;77.10
72086;BME280;64750;52.134;5.424;2022-12-07T07:34:07;101922.69;;;6.57;76.55
72086;BME280;64750;52.134;5.424;2022-12-07T07:36:33;101921.94;;;6.52;76.07
72086;BME280;64750;52.134;5.424;2022-12-07T07:39:00;101922.03;;;6.49;75.55
72086;BME280;64750;52.134;5.424;2022-12-07T07:41:26;101928.25;;;6.45;75.58
72086;BME280;64750;52.134;5.424;2022-12-07T07:43:53;101927.50;;;6.40;74.97
72086;BME280;64750;52.134;5.424;2022-12-07T07:46:21;101932.84;;;6.35;74.76
72086;BME280;64750;52.134;5.424;2022-12-07T07:48:48;101936.41;;;6.31;74.98
72086;BME280;64750;52.134;5.424;2022-12-07T07:51:14;101930.41;;;6.28;74.70
72086;BME280;64750;52.134;5.424;2022-12-07T07:53:41;101928.78;;;6.23;74.79
72086;BME280;64750;52.134;5.424;2022-12-07T07:56:10;101933.22;;;6.20;74.50
72086;BME280;64750;52.134;5.424;2022-12-07T07:58:36;101934.19;;;6.16;74.85
72086;BME280;64750;52.134;5.424;2022-12-07T08:01:09;101927.31;;;6.12;74.55
72086;BME280;64750;52.134;5.424;2022-12-07T08:03:35;101936.09;;;6.09;74.79
72086;BME280;64750;52.134;5.424;2022-12-07T08:06:05;101937.94;;;6.04;74.52
72086;BME280;64750;52.134;5.424;2022-12-07T08:08:32;101944.09;;;6.01;74.50
72086;BME280;64750;52.134;5.424;2022-12-07T08:10:58;101938.06;;;5.98;74.53
72086;BME280;64750;52.134;5.424;2022-12-07T08:13:28;101935.50;;;5.95;74.38
72086;BME280;64750;52.134;5.424;2022-12-07T08:15:57;101943.41;;;5.91;74.36
72086;BME280;64750;52.134;5.424;2022-12-07T08:18:24;101938.28;;;5.88;74.25
72086;BME280;64750;52.134;5.424;2022-12-07T08:20:50;101947.91;;;5.85;74.27
72086;BME280;64750;52.134;5.424;2022-12-07T08:23:17;101947.13;;;5.81;74.21
72086;BME280;64750;52.134;5.424;2022-12-07T08:25:43;101952.44;;;5.78;74.66
72086;BME280;64750;52.134;5.424;2022-12-07T08:28:10;101949.03;;;5.74;74.85
72086;BME280;64750;52.134;5.424;2022-12-07T08:30:36;101943.84;;;5.73;74.90
72086;BME280;64750;52.134;5.424;2022-12-07T08:33:03;101953.56;;;5.65;75.40
72086;BME280;64750;52.134;5.424;2022-12-07T08:35:32;101941.41;;;5.64;75.57
72086;BME280;64750;52.134;5.424;2022-12-07T08:37:59;101945.75;;;5.65;75.66
72086;BME280;64750;52.134;5.424;2022-12-07T08:40:30;101948.44;;;5.62;75.92
72086;BME280;64750;52.134;5.424;2022-12-07T08:42:57;101944.94;;;5.61;76.20
72086;BME280;64750;52.134;5.424;2022-12-07T08:45:23;101949.31;;;5.61;76.29
72086;BME280;64750;52.134;5.424;2022-12-07T08:47:58;101950.19;;;5.59;76.71
72086;BME280;64750;52.134;5.424;2022-12-07T08:50:27;101945.88;;;5.58;76.65
72086;BME280;64750;52.134;5.424;2022-12-07T08:52:55;101947.63;;;5.58;76.95
72086;BME280;64750;52.134;5.424;2022-12-07T08:55:23;101943.34;;;5.55;76.96
72086;BME280;64750;52.134;5.424;2022-12-07T08:57:50;101941.69;;;5.51;77.16
72086;BME280;64750;52.134;5.424;2022-12-07T09:00:17;101946.91;;;5.50;77.07
72086;BME280;64750;52.134;5.424;2022-12-07T09:02:45;101940.97;;;5.43;77.45
72086;BME280;64750;52.134;5.424;2022-12-07T09:05:12;101945.31;;;5.44;77.57
72086;BME280;64750;52.134;5.424;2022-12-07T09:07:47;101941.81;;;5.45;77.50
72086;BME280;64750;52.134;5.424;2022-12-07T09:10:15;101951.41;;;5.43;77.97
72086;BME280;64750;52.134;5.424;2022-12-07T09:12:41;101948.00;;;5.41;77.71
72086;BME280;64750;52.134;5.424;2022-12-07T09:15:08;101948.00;;;5.41;77.95
72086;BME280;64750;52.134;5.424;2022-12-07T09:17:35;101939.28;;;5.40;77.80
72086;BME280;64750;52.134;5.424;2022-12-07T09:20:06;101939.25;;;5.42;77.63
72086;BME280;64750;52.134;5.424;2022-12-07T09:22:33;101942.03;;;5.36;77.66
72086;BME280;64750;52.134;5.424;2022-12-07T09:25:00;101944.66;;;5.33;77.71
72086;BME280;64750;52.134;5.424;2022-12-07T09:27:27;101957.75;;;5.31;77.56
72086;BME280;64750;52.134;5.424;2022-12-07T09:30:00;101953.44;;;5.29;77.56
72086;BME280;64750;52.134;5.424;2022-12-07T09:32:27;101963.06;;;5.25;77.52
72086;BME280;64750;52.134;5.424;2022-12-07T09:34:54;101964.00;;;5.22;77.83
72086;BME280;64750;52.134;5.424;2022-12-07T09:37:21;101956.22;;;5.21;77.59
72086;BME280;64750;52.134;5.424;2022-12-07T09:39:48;101955.34;;;5.20;77.80
72086;BME280;64750;52.134;5.424;2022-12-07T09:42:28;101951.84;;;5.21;78.32
72086;BME280;64750;52.134;5.424;2022-12-07T09:44:58;101946.63;;;5.21;78.11
72086;BME280;64750;52.134;5.424;2022-12-07T09:47:27;101951.00;;;5.21;78.20
72086;BME280;64750;52.134;5.424;2022-12-07T09:50:03;101943.22;;;5.19;78.50
72086;BME280;64750;52.134;5.424;2022-12-07T09:52:32;101946.59;;;5.23;78.68
72086;BME280;64750;52.134;5.424;2022-12-07T09:55:10;101953.56;;;5.22;78.86
72086;BME280;64750;52.134;5.424;2022-12-07T09:57:37;101942.19;;;5.26;79.35
72086;BME280;64750;52.134;5.424;2022-12-07T10:00:16;101945.59;;;5.30;78.84
72086;BME280;64750;52.134;5.424;2022-12-07T10:02:46;101941.25;;;5.31;78.63
72086;BME280;64750;52.134;5.424;2022-12-07T10:05:27;101936.97;;;5.28;78.41
72086;BME280;64750;52.134;5.424;2022-12-07T10:07:55;101927.38;;;5.29;78.28
72086;BME280;64750;52.134;5.424;2022-12-07T10:10:40;101931.75;;;5.28;78.15
72086;BME280;64750;52.134;5.424;2022-12-07T10:13:09;101929.94;;;5.30;78.44
72086;BME280;64750;52.134;5.424;2022-12-07T10:15:48;101935.16;;;5.30;78.90
72086;BME280;64750;52.134;5.424;2022-12-07T10:20:48;101916.75;;;5.38;78.77
72086;BME280;64750;52.134;5.424;2022-12-07T10:23:18;101921.00;;;5.42;78.98
72086;BME280;64750;52.134;5.424;2022-12-07T10:25:44;101917.56;;;5.41;78.52
72086;BME280;64750;52.134;5.424;2022-12-07T10:28:14;101909.69;;;5.43;78.25
72086;BME280;64750;52.134;5.424;2022-12-07T10:31:02;101913.19;;;5.42;78.51
72086;BME280;64750;52.134;5.424;2022-12-07T10:33:50;101907.97;;;5.42;79.10
72086;BME280;64750;52.134;5.424;2022-12-07T10:38:51;101909.66;;;5.46;79.23
72086;BME280;64750;52.134;5.424;2022-12-07T10:41:18;101898.28;;;5.49;79.22
72086;BME280;64750;52.134;5.424;2022-12-07T10:43:48;101905.19;;;5.51;78.89
72086;BME280;64750;52.134;5.424;2022-12-07T11:02:30;101887.16;;;5.80;79.45
72086;BME280;64750;52.134;5.424;2022-12-07T11:13:16;101880.13;;;5.83;79.19
72086;BME280;64750;52.134;5.424;2022-12-07T11:16:02;101876.69;;;5.81;78.91
72086;BME280;64750;52.134;5.424;2022-12-07T11:18:59;101875.72;;;5.85;79.34
72086;BME280;64750;52.134;5.424;2022-12-07T11:21:47;101872.13;;;5.89;79.47
72086;BME280;64750;52.134;5.424;2022-12-07T11:24:20;101873.94;;;5.87;79.29
72086;BME280;64750;52.134;5.424;2022-12-07T11:29:56;101866.72;;;5.97;79.64
72086;BME280;64750;52.134;5.424;2022-12-07T11:38:20;101862.91;;;6.12;80.24
72086;BME280;64750;52.134;5.424;2022-12-07T11:40:59;101859.38;;;6.15;80.08
72086;BME280;64750;52.134;5.424;2022-12-07T11:44:18;101853.16;;;6.20;79.86
72086;BME280;64750;52.134;5.424;2022-12-07T11:47:27;101850.38;;;6.27;79.55
72086;BME280;64750;52.134;5.424;2022-12-07T11:52:51;101841.34;;;6.40;79.75
72086;BME280;64750;52.134;5.424;2022-12-07T11:55:38;101839.34;;;6.48;79.84
72086;BME280;64750;52.134;5.424;2022-12-07T12:04:01;101824.91;;;6.68;78.90
72086;BME280;64750;52.134;5.424;2022-12-07T12:06:28;101833.28;;;6.79;78.35
72086;BME280;64750;52.134;5.424;2022-12-07T12:21:01;101808.19;;;7.03;78.04
72086;BME280;64750;52.134;5.424;2022-12-07T12:26:01;101818.34;;;7.14;77.52
72086;BME280;64750;52.134;5.424;2022-12-07T12:31:13;101804.63;;;7.06;77.59
72086;BME280;64750;52.134;5.424;2022-12-07T12:33:46;101799.22;;;7.12;77.35
72086;BME280;64750;52.134;5.424;2022-12-07T12:36:18;101788.69;;;7.15;76.95
72086;BME280;64750;52.134;5.424;2022-12-07T12:39:27;101791.09;;;7.21;77.08
72086;BME280;64750;52.134;5.424;2022-12-07T12:44:02;101791.25;;;7.17;77.66
72086;BME280;64750;52.134;5.424;2022-12-07T12:51:44;101777.00;;;7.27;77.40
72086;BME280;64750;52.134;5.424;2022-12-07T12:54:15;101778.78;;;7.25;77.67
72086;BME280;64750;52.134;5.424;2022-12-07T12:56:52;101782.31;;;7.24;77.59
72086;BME280;64750;52.134;5.424;2022-12-07T12:59:35;101776.16;;;7.25;77.60
72086;BME280;64750;52.134;5.424;2022-12-07T13:02:26;101778.72;;;7.27;77.39
72086;BME280;64750;52.134;5.424;2022-12-07T13:04:57;101784.03;;;7.25;77.47
72086;BME280;64750;52.134;5.424;2022-12-07T13:18:35;101761.56;;;7.46;77.93
72086;BME280;64750;52.134;5.424;2022-12-07T13:23:57;101753.53;;;7.52;78.18
72086;BME280;64750;52.134;5.424;2022-12-07T13:26:36;101749.97;;;7.55;77.84
72086;BME280;64750;52.134;5.424;2022-12-07T13:29:13;101753.38;;;7.57;78.02
72086;BME280;64750;52.134;5.424;2022-12-07T13:31:54;101753.16;;;7.63;78.00
72086;BME280;64750;52.134;5.424;2022-12-07T13:34:34;101744.25;;;7.69;77.98
72086;BME280;64750;52.134;5.424;2022-12-07T13:37:10;101742.31;;;7.76;78.20
72086;BME280;64750;52.134;5.424;2022-12-07T13:39:51;101732.78;;;7.73;77.38
72086;BME280;64750;52.134;5.424;2022-12-07T13:42:34;101732.78;;;7.73;77.84
72086;BME280;64750;52.134;5.424;2022-12-07T13:45:20;101729.16;;;7.77;77.97
72086;BME280;64750;52.134;5.424;2022-12-07T13:47:52;101723.03;;;7.78;78.04
72086;BME280;64750;52.134;5.424;2022-12-07T13:50:28;101724.69;;;7.81;77.83
72086;BME280;64750;52.134;5.424;2022-12-07T13:52:56;101718.50;;;7.82;77.48
72086;BME280;64750;52.134;5.424;2022-12-07T13:55:26;101722.00;;;7.82;77.54
72086;BME280;64750;52.134;5.424;2022-12-07T13:57:54;101721.19;;;7.80;77.36
72086;BME280;64750;52.134;5.424;2022-12-07T14:00:28;101718.56;;;7.80;77.80
72086;BME280;64750;52.134;5.424;2022-12-07T14:05:42;101716.66;;;7.85;77.85
72086;BME280;64750;52.134;5.424;2022-12-07T14:13:36;101711.31;;;7.88;77.09
72086;BME280;64750;52.134;5.424;2022-12-07T14:16:24;101699.97;;;7.88;77.33
72086;BME280;64750;52.134;5.424;2022-12-07T14:18:52;101701.97;;;7.81;77.35
72086;BME280;64750;52.134;5.424;2022-12-07T14:21:22;101701.06;;;7.82;77.34
72086;BME280;64750;52.134;5.424;2022-12-07T14:24:08;101693.09;;;7.85;77.53
72086;BME280;64750;52.134;5.424;2022-12-07T14:26:37;101695.81;;;7.82;77.47
72086;BME280;64750;52.134;5.424;2022-12-07T14:29:30;101691.34;;;7.86;77.67
72086;BME280;64750;52.134;5.424;2022-12-07T14:34:27;101681.59;;;7.89;77.60
72086;BME280;64750;52.134;5.424;2022-12-07T14:36:53;101691.13;;;7.92;77.70
72086;BME280;64750;52.134;5.424;2022-12-07T14:39:20;101687.66;;;7.92;77.39
72086;BME280;64750;52.134;5.424;2022-12-07T14:41:46;101682.41;;;7.92;77.60
72086;BME280;64750;52.134;5.424;2022-12-07T14:44:25;101680.75;;;7.89;77.54
72086;BME280;64750;52.134;5.424;2022-12-07T14:47:03;101678.88;;;7.93;77.33
72086;BME280;64750;52.134;5.424;2022-12-07T14:49:50;101675.38;;;7.94;77.39
72086;BME280;64750;52.134;5.424;2022-12-07T14:52:19;101678.97;;;7.89;76.96
72086;BME280;64750;52.134;5.424;2022-12-07T14:55:27;101671.25;;;7.86;77.27
72086;BME280;64750;52.134;5.424;2022-12-07T14:57:54;101679.09;;;7.86;76.98
72086;BME280;64750;52.134;5.424;2022-12-07T15:00:23;101671.25;;;7.86;77.48
72086;BME280;64750;52.134;5.424;2022-12-07T15:02:50;101675.59;;;7.87;77.42
72086;BME280;64750;52.134;5.424;2022-12-07T15:05:18;101678.19;;;7.87;77.30
72086;BME280;64750;52.134;5.424;2022-12-07T15:07:45;101674.69;;;7.88;77.50
72086;BME280;64750;52.134;5.424;2022-12-07T15:10:17;101681.44;;;7.94;76.84
72086;BME280;64750;52.134;5.424;2022-12-07T15:12:49;101683.16;;;7.95;76.37
72086;BME280;64750;52.134;5.424;2022-12-07T15:15:16;101691.97;;;7.93;76.46
72086;BME280;64750;52.134;5.424;2022-12-07T15:17:43;101680.00;;;7.85;75.54
72086;BME280;64750;52.134;5.424;2022-12-07T15:20:14;101688.03;;;7.81;75.65
72086;BME280;64750;52.134;5.424;2022-12-07T15:22:43;101683.84;;;7.75;75.64
72086;BME280;64750;52.134;5.424;2022-12-07T15:25:13;101668.06;;;7.78;75.48
72086;BME280;64750;52.134;5.424;2022-12-07T15:27:39;101674.97;;;7.79;75.56
72086;BME280;64750;52.134;5.424;2022-12-07T15:30:06;101674.06;;;7.80;75.58
72086;BME280;64750;52.134;5.424;2022-12-07T15:32:33;101671.47;;;7.80;75.25
72086;BME280;64750;52.134;5.424;2022-12-07T15:35:00;101668.91;;;7.79;75.17